This is the latest recevied weather packets stored in our database for station/object IV3ONZ. If no packets are shown the sender has not sent any weather packets the latest 10 day(s).
| Time | Temp. | Humidity | Pressure | Rain* | Wind** | Luminosity | Snow |
|---|---|---|---|---|---|---|---|
| 1777774804 | 9.44° C | 75% | 1022.1 hPa | 0 mm | - | 0 W/m² | - |
| 1777773904 | 10° C | 74% | 1022.4 hPa | 0 mm | - | 0 W/m² | - |
| 1777773604 | 10° C | 74% | 1022.2 hPa | 0 mm | - | 0 W/m² | - |
| 1777773304 | 10° C | 74% | 1022.4 hPa | 0 mm | - | 0 W/m² | - |
| 1777772703 | 10° C | 74% | 1022.3 hPa | 0 mm | - | 0 W/m² | - |
| 1777772403 | 10° C | 73% | 1022.3 hPa | 0 mm | - | 0 W/m² | - |
| 1777772104 | 10° C | 73% | 1022.1 hPa | 0 mm | - | 0 W/m² | - |
| 1777770904 | 11.11° C | 69% | 1022.5 hPa | 0 mm | - | 0 W/m² | - |
| 1777768804 | 10.56° C | 73% | 1022.9 hPa | 0 mm | - | 0 W/m² | - |
| 1777767904 | 10.56° C | 71% | 1023.1 hPa | 0 mm | - | 0 W/m² | - |
| 1777767737 | 11.11° C | 71% | 1023 hPa | 0 mm | - | 0 W/m² | - |
| 1777762633 | 12.22° C | 65% | 1023.5 hPa | 0 mm | - | 0 W/m² | - |
| 1777760704 | 12.22° C | 64% | 1023.7 hPa | 0 mm | - | 0 W/m² | - |
| 1777760403 | 12.22° C | 65% | 1023.9 hPa | 0 mm | - | 0 W/m² | - |
| 1777758906 | 12.22° C | 65% | 1023.9 hPa | 0 mm | - | 0 W/m² | - |
| 1777758304 | 12.78° C | 65% | 1023.9 hPa | 0 mm | - | 0 W/m² | - |
| 1777753504 | 14.44° C | 61% | 1024.1 hPa | 0 mm | - | 0 W/m² | - |
| 1777752904 | 14.44° C | 61% | 1024.1 hPa | 0 mm | - | 0 W/m² | - |
| 1777752303 | 15° C | 59% | 1024.1 hPa | 0 mm | - | 0 W/m² | - |
| 1777750504 | 15.56° C | 58% | 1024.1 hPa | 0 mm | - | 0 W/m² | - |
| 1777748235 | 16.67° C | 58% | 1023.8 hPa | 0 mm | - | 0 W/m² | - |
| 1777747204 | 17.22° C | 56% | 1023.9 hPa | 0 mm | - | 0 W/m² | - |
| 1777744504 | 18.33° C | 54% | 1023.4 hPa | 0 mm | - | 12 W/m² | - |
| 1777743903 | 18.89° C | 53% | 1023.2 hPa | 0 mm | - | 18 W/m² | - |
| 1777740603 | 21.67° C | 36% | 1023.4 hPa | 0 mm | - | 112 W/m² | - |
* Rain latest hour (hover to see other rain measurements)
** Current wind speed in m/s (hover to see current wind gust speed)